KGNT/GNT METAR and TAF weather

Enter ICAO airport designator
Station Type Date Time Source
KGNT METAR 2022/05/23 13:35 UTC NOAA

KGNT 231335Z AUTO 24011G16KT 10SM CLR 13/M08 A3011 RMK AO2 T01341076


Station Type Date Time Source
KGNT Decoded METAR 2022/05/23 13:35 UTC NOAA

GRANTS-MILAN MUNICIPAL AIRPORT , NM, United States (KGNT) 35-10N 107-54W 1987M
May 23, 2022 - 09:35 AM EDT / 2022.05.23 1335 UTC
Wind: from the WSW (240 degrees) at 13 MPH (11 KT) gusting to 18 MPH (16 KT):0
Visibility: 10 mile(s):0
Sky conditions: clear
Temperature: 56.1 F (13.4 C)
Dew Point: 18.3 F (-7.6 C)
Relative Humidity: 22%
Pressure (altimeter): 30.11 in. Hg (1019 hPa)
ob: KGNT 231335Z AUTO 24011G16KT 10SM CLR 13/M08 A3011 RMK AO2 T01341076
cycle: 13

Station Type Date Time Source
KGNT TAF UTC NOAA

Error!

Example: see airport list